Terminal Aerodrome Forecast
Issued by NWS Sterling, VA

Home | Current Version | Previous Version | Text Only | Print | Product List | Glossary On
Versions: 1 2 3 4 5 6 7 8 9 10 11 12 13 14 15 16 17 18 19 20 21 22 23 24 25
000
FTUS41 KLWX 210525
TAFMRB
TAF
KMRB 210525Z 2106/2206 00000KT 1/2SM -DZ FG OVC002
     FM210800 00000KT 1/4SM -DZ FG OVC001
     FM211300 00000KT 1SM -DZ BR OVC002
     FM211400 00000KT 2SM -DZ BR OVC003
     FM211600 VRB03KT P6SM BKN008 OVC015
     FM212300 12004KT 5SM BR OVC003=

USA.gov is the U.S. government's official web portal to all federal, state and local government web resources and services.